Time;durP1;ratioP1;P1;durP2;ratioP2;P2;SDS_P1;SDS_P2;PMS_P1;PMS_P2;Temp;Humidity;BMP_temperature;BMP_pressure;BME280_temperature;BME280_humidity;BME280_pressure;Samples;Min_cycle;Max_cycle;Signal;HPM_P1;HPM_P2
2024/03/01 00:03:16;;;;;;;12.65;6.35;;;8.80;99.90;;;;;;8456253;28;20551;-77
2024/03/01 00:07:18;;;;;;;10.05;5.60;;;8.80;99.90;;;;;;8455307;28;20451;-77
2024/03/01 00:11:20;;;;;;;11.35;6.20;;;8.90;99.90;;;;;;8454732;28;20107;-76
2024/03/01 00:15:22;;;;;;;11.85;6.57;;;8.80;99.90;;;;;;8444184;28;20518;-76
2024/03/01 00:19:23;;;;;;;12.73;6.63;;;8.80;99.90;;;;;;8454691;28;20043;-77
2024/03/01 00:23:28;;;;;;;11.60;6.03;;;8.90;99.90;;;;;;8446418;28;20137;-76
2024/03/01 00:27:30;;;;;;;8.95;5.50;;;8.90;99.90;;;;;;8454743;28;20078;-76
2024/03/01 00:31:32;;;;;;;10.00;5.35;;;8.90;99.90;;;;;;8457473;28;20032;-76
2024/03/01 00:35:34;;;;;;;9.45;5.07;;;8.90;99.90;;;;;;8455301;28;20075;-76
2024/03/01 00:39:35;;;;;;;10.35;5.72;;;8.80;99.90;;;;;;8456370;28;20051;-76
2024/03/01 00:43:38;;;;;;;10.05;5.05;;;8.80;99.90;;;;;;8451401;28;20506;-76
2024/03/01 00:47:47;;;;;;;11.38;6.15;;;8.80;99.90;;;;;;8452363;28;20144;-77
2024/03/01 00:51:49;;;;;;;11.85;5.82;;;8.80;99.90;;;;;;8454373;28;20051;-76
2024/03/01 00:55:51;;;;;;;11.27;5.70;;;8.70;99.90;;;;;;8452524;28;20043;-76
2024/03/01 00:59:53;;;;;;;12.00;6.53;;;8.70;99.90;;;;;;8455711;28;20043;-76
2024/03/01 01:03:54;;;;;;;10.25;5.82;;;8.70;99.90;;;;;;8449966;28;20048;-76
2024/03/01 01:07:56;;;;;;;11.85;6.05;;;8.70;99.90;;;;;;8451198;28;20044;-76
2024/03/01 01:11:58;;;;;;;10.35;5.70;;;8.60;99.90;;;;;;8451490;28;20470;-76
2024/03/01 01:16:00;;;;;;;9.23;5.45;;;8.60;99.90;;;;;;8446717;28;20040;-77
2024/03/01 01:20:03;;;;;;;12.02;6.07;;;8.60;99.90;;;;;;8453806;28;20092;-76
2024/03/01 01:24:05;;;;;;;10.75;6.20;;;8.60;99.90;;;;;;8457041;28;20099;-76
2024/03/01 01:28:07;;;;;;;9.07;4.63;;;8.60;99.90;;;;;;8459271;28;20443;-77
2024/03/01 01:32:09;;;;;;;9.95;6.18;;;8.60;99.90;;;;;;8454882;27;20062;-77
2024/03/01 01:36:11;;;;;;;9.32;4.90;;;8.60;99.90;;;;;;8460130;28;20048;-76
2024/03/01 01:40:13;;;;;;;9.38;5.40;;;8.70;99.90;;;;;;8451025;28;20092;-76
2024/03/01 01:44:15;;;;;;;10.20;5.80;;;8.70;99.90;;;;;;8457689;28;20043;-76
2024/03/01 01:48:17;;;;;;;8.10;4.80;;;8.80;99.90;;;;;;8453122;28;20052;-77
2024/03/01 01:52:19;;;;;;;9.05;5.18;;;8.80;99.90;;;;;;8460389;28;20051;-76
2024/03/01 01:56:21;;;;;;;8.13;4.07;;;8.80;99.90;;;;;;8459629;28;20115;-77
2024/03/01 02:00:23;;;;;;;7.90;4.43;;;8.90;99.90;;;;;;8458447;28;20044;-76
2024/03/01 02:04:25;;;;;;;8.35;4.82;;;8.90;99.90;;;;;;8457478;28;20048;-76
2024/03/01 02:08:27;;;;;;;10.85;4.85;;;8.90;99.90;;;;;;8458285;28;20043;-76
2024/03/01 02:12:29;;;;;;;9.88;5.00;;;9.00;99.90;;;;;;8453967;28;20039;-76
2024/03/01 02:16:30;;;;;;;9.95;5.10;;;9.00;99.90;;;;;;8449573;28;20319;-76
2024/03/01 02:20:33;;;;;;;9.57;5.10;;;9.00;99.90;;;;;;8457515;27;20100;-76
2024/03/01 02:24:34;;;;;;;9.18;5.35;;;9.00;99.90;;;;;;8452466;28;20107;-76
2024/03/01 02:28:43;;;;;;;8.38;4.57;;;9.10;99.90;;;;;;8460903;28;20047;-76
2024/03/01 02:32:46;;;;;;;8.52;4.82;;;9.10;99.90;;;;;;8458831;28;20035;-77
2024/03/01 02:36:48;;;;;;;7.90;4.22;;;9.10;99.90;;;;;;8454727;28;20445;-77
2024/03/01 02:40:50;;;;;;;8.50;4.82;;;9.10;99.90;;;;;;8457687;28;20051;-76
2024/03/01 02:44:52;;;;;;;8.65;4.57;;;9.10;99.90;;;;;;8459243;28;20074;-76
2024/03/01 02:48:54;;;;;;;9.27;4.97;;;9.10;99.90;;;;;;8459751;28;20476;-76
2024/03/01 02:52:56;;;;;;;9.10;4.70;;;9.10;99.90;;;;;;8478054;27;20471;-76
2024/03/01 02:56:58;;;;;;;7.57;4.43;;;9.20;99.90;;;;;;8459979;27;20036;-76
2024/03/01 03:01:00;;;;;;;8.18;4.88;;;9.20;99.90;;;;;;8448051;28;20047;-76
2024/03/01 03:05:03;;;;;;;8.77;4.47;;;9.20;99.90;;;;;;8459839;28;20051;-77
2024/03/01 03:09:09;;;;;;;10.15;5.43;;;9.20;99.90;;;;;;8459521;28;20051;-76
2024/03/01 03:13:11;;;;;;;12.05;5.55;;;9.20;99.90;;;;;;8455021;28;20044;-77
2024/03/01 03:22:38;;;;;;;9.27;5.22;;;9.00;99.90;;;;;;8453660;28;20033;-76
2024/03/01 03:26:40;;;;;;;11.00;5.38;;;8.90;99.90;;;;;;8458100;28;20475;-77
2024/03/01 03:30:44;;;;;;;9.38;5.00;;;8.90;99.90;;;;;;8442858;28;20105;-77
2024/03/01 03:34:45;;;;;;;10.65;5.45;;;8.80;99.90;;;;;;8451385;27;20453;-76
2024/03/01 03:38:47;;;;;;;8.60;4.32;;;8.80;99.90;;;;;;8459348;28;20471;-77
2024/03/01 03:42:49;;;;;;;8.10;4.00;;;8.70;99.90;;;;;;8445423;28;20059;-77
2024/03/01 03:46:51;;;;;;;4.85;2.35;;;8.60;99.90;;;;;;8454702;28;20134;-77
2024/03/01 03:50:53;;;;;;;3.60;1.77;;;8.50;99.90;;;;;;8457171;28;20044;-77
2024/03/01 03:54:55;;;;;;;2.78;1.27;;;8.20;99.90;;;;;;8448914;28;20051;-76
2024/03/01 03:58:56;;;;;;;2.67;1.10;;;7.90;99.90;;;;;;8453127;28;20078;-77
2024/03/01 04:02:58;;;;;;;2.17;1.00;;;7.70;99.90;;;;;;8449654;28;20055;-77
2024/03/01 04:07:00;;;;;;;2.92;1.38;;;7.60;99.90;;;;;;8449274;28;20517;-77
2024/03/01 04:11:05;;;;;;;3.65;1.20;;;7.50;99.90;;;;;;8455134;28;20058;-77
2024/03/01 04:15:08;;;;;;;2.97;1.17;;;7.40;99.90;;;;;;8450341;27;20044;-77
2024/03/01 04:19:10;;;;;;;2.63;0.90;;;7.30;99.90;;;;;;8456420;28;20096;-77
2024/03/01 04:23:12;;;;;;;2.80;1.10;;;7.30;99.90;;;;;;8456231;28;20051;-77
2024/03/01 04:27:14;;;;;;;1.92;0.82;;;7.20;99.90;;;;;;8457337;28;20047;-77
2024/03/01 04:31:16;;;;;;;3.00;0.88;;;7.20;99.90;;;;;;8458629;28;20096;-77
2024/03/01 04:35:18;;;;;;;1.77;0.90;;;7.20;99.90;;;;;;8452835;28;20138;-78
2024/03/01 04:39:19;;;;;;;2.53;1.00;;;7.20;99.90;;;;;;8457781;28;20055;-77
2024/03/01 04:43:21;;;;;;;3.10;0.82;;;7.10;99.90;;;;;;8453641;28;20058;-77
2024/03/01 04:47:23;;;;;;;2.17;0.90;;;7.10;99.90;;;;;;8456573;28;20059;-77
2024/03/01 04:51:25;;;;;;;4.00;1.00;;;7.10;99.90;;;;;;8463430;28;20076;-77
2024/03/01 04:55:27;;;;;;;2.72;0.90;;;7.00;99.90;;;;;;8462547;27;20410;-77
2024/03/01 04:59:29;;;;;;;2.47;0.75;;;7.00;99.90;;;;;;8464487;28;20047;-77
2024/03/01 05:03:55;;;;;;;2.67;0.90;;;6.90;99.90;;;;;;8463896;28;20483;-77
2024/03/01 05:07:57;;;;;;;1.60;0.82;;;6.90;99.90;;;;;;8463679;28;20047;-77
2024/03/01 05:11:59;;;;;;;4.05;0.93;;;6.90;99.90;;;;;;8465884;28;20047;-77
2024/03/01 05:16:01;;;;;;;3.15;0.80;;;6.90;99.90;;;;;;8456792;27;20131;-77
2024/03/01 05:20:10;;;;;;;4.10;1.15;;;6.90;99.90;;;;;;8464338;28;20142;-77
2024/03/01 05:24:13;;;;;;;5.57;1.10;;;6.90;99.90;;;;;;8458065;28;20482;-77
2024/03/01 05:28:15;;;;;;;3.72;1.00;;;6.90;99.90;;;;;;8469039;27;20054;-77
2024/03/01 05:32:17;;;;;;;2.20;0.90;;;6.90;99.90;;;;;;8462728;28;20044;-77
2024/03/01 05:36:19;;;;;;;3.25;1.20;;;7.00;99.90;;;;;;8466375;28;20043;-77
2024/03/01 05:40:22;;;;;;;3.70;1.08;;;7.00;99.90;;;;;;8464523;28;20085;-77
2024/03/01 05:44:24;;;;;;;4.15;1.20;;;6.90;99.90;;;;;;8461236;28;20081;-77
2024/03/01 05:48:25;;;;;;;3.28;1.13;;;7.00;99.90;;;;;;8462762;27;20055;-77
2024/03/01 05:57:32;;;;;;;3.13;1.30;;;6.90;99.90;;;;;;8469399;27;20040;-77
2024/03/01 06:01:34;;;;;;;4.32;1.30;;;6.90;99.90;;;;;;8462370;27;20494;-77
2024/03/01 06:05:36;;;;;;;6.15;1.75;;;6.90;99.90;;;;;;8458799;28;20040;-77
2024/03/01 06:09:38;;;;;;;5.13;1.77;;;6.80;99.90;;;;;;8462395;28;20085;-77
2024/03/01 06:13:40;;;;;;;5.95;2.22;;;6.70;99.90;;;;;;8458728;28;20051;-77
2024/03/01 06:17:43;;;;;;;5.50;1.98;;;6.60;99.90;;;;;;8447606;27;20104;-77
2024/03/01 06:21:44;;;;;;;5.45;2.20;;;6.50;99.90;;;;;;8452426;28;20130;-77
2024/03/01 06:25:46;;;;;;;5.90;2.50;;;6.40;99.90;;;;;;8457993;28;20048;-77
2024/03/01 06:30:35;;;;;;;5.88;2.55;;;6.30;99.90;;;;;;8462320;27;20047;-77
2024/03/01 06:34:40;;;;;;;5.75;2.53;;;6.30;99.90;;;;;;8459511;28;20040;-77
2024/03/01 06:38:42;;;;;;;4.50;1.90;;;6.30;99.90;;;;;;8461257;28;20047;-77
2024/03/01 06:42:44;;;;;;;6.20;2.00;;;6.30;99.90;;;;;;8459966;28;20424;-77
2024/03/01 06:46:47;;;;;;;5.20;1.90;;;6.30;99.90;;;;;;8459962;28;20062;-77
2024/03/01 06:50:48;;;;;;;3.85;1.67;;;6.30;99.90;;;;;;8461192;28;20055;-77
2024/03/01 06:54:50;;;;;;;4.10;2.17;;;6.20;99.90;;;;;;8460334;28;20035;-76
2024/03/01 06:58:52;;;;;;;5.93;2.08;;;6.20;99.90;;;;;;8460422;28;20047;-77
2024/03/01 07:02:54;;;;;;;6.18;1.80;;;6.20;99.90;;;;;;8459120;28;20097;-77
2024/03/01 07:06:56;;;;;;;5.38;2.40;;;6.10;99.90;;;;;;8457656;28;20555;-76
2024/03/01 07:10:58;;;;;;;3.67;1.63;;;6.10;99.90;;;;;;8459881;28;20401;-76
2024/03/01 07:15:00;;;;;;;4.78;2.03;;;6.10;99.90;;;;;;8452776;28;20052;-77
2024/03/01 07:19:02;;;;;;;5.25;1.75;;;6.10;99.90;;;;;;8459411;28;20047;-76
2024/03/01 07:23:04;;;;;;;6.03;2.17;;;6.10;99.90;;;;;;8461089;27;20051;-76
2024/03/01 07:27:06;;;;;;;5.45;2.65;;;6.10;99.90;;;;;;8459525;28;20093;-76
2024/03/01 07:31:08;;;;;;;6.07;2.45;;;6.10;99.90;;;;;;8458423;28;20498;-76
2024/03/01 07:35:09;;;;;;;7.28;2.67;;;6.10;99.90;;;;;;8460014;28;20059;-77
2024/03/01 07:39:12;;;;;;;5.93;2.50;;;6.10;99.90;;;;;;8456577;28;20051;-76
2024/03/01 07:43:13;;;;;;;7.25;3.92;;;6.10;99.90;;;;;;8450500;28;20047;-77
2024/03/01 07:47:15;;;;;;;7.20;3.40;;;6.10;99.90;;;;;;8453975;28;20051;-74
2024/03/01 07:51:17;;;;;;;10.63;4.00;;;6.10;99.90;;;;;;8457958;28;20074;-76
2024/03/01 07:55:19;;;;;;;9.80;4.25;;;6.20;99.90;;;;;;8455440;28;20387;-76
2024/03/01 07:59:21;;;;;;;9.02;4.15;;;6.30;99.90;;;;;;8453697;28;20156;-77
2024/03/01 08:03:22;;;;;;;10.10;4.78;;;6.30;99.90;;;;;;8445672;27;20155;-76
2024/03/01 08:07:24;;;;;;;8.82;4.57;;;6.40;99.90;;;;;;8455166;28;20096;-76
2024/03/01 08:11:44;;;;;;;10.95;5.75;;;6.50;99.90;;;;;;8449268;27;20046;-76
2024/03/01 08:15:46;;;;;;;11.30;5.15;;;6.60;99.90;;;;;;8455473;27;20052;-76
2024/03/01 08:19:49;;;;;;;11.40;5.32;;;6.60;99.90;;;;;;8455732;28;20047;-76
2024/03/01 08:23:51;;;;;;;12.30;6.03;;;6.70;99.90;;;;;;8455360;28;20490;-76
2024/03/01 08:27:57;;;;;;;14.05;7.55;;;6.80;99.90;;;;;;8458721;28;20058;-76
2024/03/01 08:31:59;;;;;;;13.18;6.97;;;6.80;99.90;;;;;;8456844;28;20054;-76
2024/03/01 08:36:02;;;;;;;13.95;8.10;;;6.90;99.90;;;;;;8457963;28;20056;-76
2024/03/01 08:40:40;;;;;;;12.43;7.35;;;7.00;99.90;;;;;;8454344;28;20138;-76
2024/03/01 08:44:54;;;;;;;13.20;7.00;;;7.10;99.90;;;;;;8399265;28;20062;-76
2024/03/01 08:48:58;;;;;;;13.82;7.22;;;7.10;99.90;;;;;;8476693;27;20444;-76
2024/03/01 08:53:00;;;;;;;14.57;6.45;;;7.20;99.90;;;;;;8457749;28;20044;-76
2024/03/01 08:57:05;;;;;;;11.95;6.35;;;7.30;99.90;;;;;;8451532;28;20483;-76
2024/03/01 09:01:46;;;;;;;14.30;6.88;;;7.40;99.90;;;;;;8455284;28;20048;-76
2024/03/01 09:05:47;;;;;;;13.15;6.80;;;7.60;99.90;;;;;;8459096;28;20056;-76
2024/03/01 09:09:49;;;;;;;13.40;6.63;;;7.70;99.90;;;;;;8458192;28;20043;-76
2024/03/01 09:13:52;;;;;;;12.85;6.90;;;7.80;99.90;;;;;;8454747;28;20108;-76
2024/03/01 09:17:55;;;;;;;13.55;6.30;;;7.80;99.90;;;;;;8447837;28;20615;-76
2024/03/01 09:21:57;;;;;;;13.98;7.10;;;7.90;99.90;;;;;;8452000;28;20055;-76
2024/03/01 09:26:09;;;;;;;11.48;5.57;;;7.90;99.90;;;;;;8457729;28;20047;-76
2024/03/01 09:30:14;;;;;;;10.38;4.80;;;8.00;99.90;;;;;;8452093;28;20100;-76
2024/03/01 09:34:17;;;;;;;10.13;5.10;;;8.10;99.90;;;;;;8459655;28;20482;-76
2024/03/01 09:38:21;;;;;;;10.30;5.13;;;8.20;99.90;;;;;;8464542;27;20047;-76
2024/03/01 09:42:38;;;;;;;9.68;4.65;;;8.40;99.90;;;;;;8461781;28;20093;-76
2024/03/01 09:47:02;;;;;;;12.70;4.68;;;8.50;99.90;;;;;;8462957;28;20101;-77
2024/03/01 09:51:22;;;;;;;8.90;4.05;;;8.80;99.90;;;;;;8488171;27;20044;-76
2024/03/01 09:55:39;;;;;;;8.60;4.35;;;9.00;99.90;;;;;;8458809;28;20123;-76
2024/03/01 10:00:06;;;;;;;9.55;4.25;;;9.20;99.90;;;;;;8462240;28;20054;-76
2024/03/01 10:04:22;;;;;;;10.63;4.50;;;9.40;99.90;;;;;;8459801;28;20379;-76
2024/03/01 10:08:52;;;;;;;10.70;4.10;;;9.60;99.90;;;;;;8462552;28;20061;-76
2024/03/01 10:13:01;;;;;;;11.02;4.43;;;9.60;99.90;;;;;;8424724;28;20052;-75
2024/03/01 10:17:17;;;;;;;10.02;4.10;;;9.30;99.90;;;;;;8446352;28;20059;-75
2024/03/01 10:21:28;;;;;;;13.13;4.07;;;9.10;99.90;;;;;;8455184;28;20047;-75
2024/03/01 10:25:40;;;;;;;6.50;3.63;;;9.20;99.90;;;;;;8459733;28;20122;-76
2024/03/01 10:30:02;;;;;;;7.40;3.85;;;9.40;99.90;;;;;;8462302;28;20120;-76
2024/03/01 10:34:30;;;;;;;8.60;3.90;;;9.50;99.90;;;;;;8458634;28;20067;-76
2024/03/01 10:38:39;;;;;;;10.20;4.47;;;9.90;99.90;;;;;;8463423;27;20067;-76
2024/03/01 10:42:44;;;;;;;10.65;4.22;;;10.50;99.90;;;;;;8451036;27;20055;-75
2024/03/01 10:46:58;;;;;;;8.73;4.32;;;10.50;99.90;;;;;;8457118;28;20058;-76
2024/03/01 10:51:08;;;;;;;6.67;3.97;;;10.40;99.90;;;;;;8455504;28;20435;-76
2024/03/01 10:55:37;;;;;;;7.82;4.63;;;10.50;99.90;;;;;;8464754;27;20133;-76
2024/03/01 11:00:12;;;;;;;8.50;5.20;;;10.40;99.90;;;;;;8456957;28;20246;-76
2024/03/01 11:04:22;;;;;;;12.25;5.85;;;10.70;99.90;;;;;;8449853;27;20514;-76
2024/03/01 11:08:55;;;;;;;9.18;5.93;;;11.00;99.90;;;;;;8453872;28;20055;-76
2024/03/01 11:13:06;;;;;;;8.48;5.63;;;11.30;99.90;;;;;;8460274;27;20510;-76
2024/03/01 11:17:10;;;;;;;10.85;7.00;;;11.70;99.90;;;;;;8453057;28;20596;-76
2024/03/01 11:21:17;;;;;;;9.27;5.63;;;12.20;99.90;;;;;;8460682;28;20151;-77
2024/03/01 11:25:24;;;;;;;6.67;4.13;;;12.60;99.90;;;;;;8460328;28;20055;-77
2024/03/01 11:29:41;;;;;;;6.63;3.55;;;12.90;99.90;;;;;;8457780;28;20402;-77
2024/03/01 11:33:43;;;;;;;5.85;3.13;;;13.00;99.90;;;;;;8457490;28;20487;-77
2024/03/01 11:38:10;;;;;;;5.05;2.50;;;13.00;99.90;;;;;;8456709;28;20055;-77
2024/03/01 11:42:22;;;;;;;5.75;2.20;;;13.50;99.90;;;;;;8460243;28;20090;-76
2024/03/01 11:46:55;;;;;;;5.83;2.27;;;13.70;99.90;;;;;;8453009;28;20092;-76
2024/03/01 11:51:00;;;;;;;5.65;2.47;;;13.80;99.90;;;;;;8456436;28;20083;-77
2024/03/01 11:55:32;;;;;;;4.88;2.13;;;13.70;99.90;;;;;;8459522;28;20096;-77
2024/03/01 11:59:59;;;;;;;5.00;2.00;;;13.80;99.90;;;;;;8449443;27;20104;-77
2024/03/01 12:04:25;;;;;;;5.05;2.03;;;13.70;99.90;;;;;;8454834;28;20115;-77
2024/03/01 12:08:47;;;;;;;5.97;2.10;;;13.10;99.90;;;;;;8457747;28;20044;-77
2024/03/01 12:12:59;;;;;;;4.30;2.00;;;12.40;99.90;;;;;;8454226;28;20069;-77
2024/03/01 12:17:08;;;;;;;4.65;1.70;;;12.10;99.90;;;;;;8438283;28;20044;-76
2024/03/01 12:21:33;;;;;;;3.55;1.45;;;11.80;99.90;;;;;;8424937;28;20052;-76
2024/03/01 12:25:37;;;;;;;4.40;1.70;;;11.60;99.90;;;;;;8432567;28;20048;-76
2024/03/01 12:29:44;;;;;;;3.53;1.67;;;11.50;99.90;;;;;;8429449;28;20054;-76
2024/03/01 12:33:53;;;;;;;4.38;1.90;;;11.40;99.90;;;;;;8432163;28;20471;-76
2024/03/01 12:38:09;;;;;;;4.03;1.90;;;11.30;99.90;;;;;;8431422;28;20448;-77
2024/03/01 12:42:31;;;;;;;4.68;1.67;;;11.20;99.90;;;;;;8423709;28;20055;-76
2024/03/01 12:46:41;;;;;;;4.25;1.70;;;11.00;99.90;;;;;;8425746;28;20060;-77
2024/03/01 12:51:03;;;;;;;4.85;1.50;;;10.90;99.90;;;;;;8429543;28;20414;-77
2024/03/01 12:55:27;;;;;;;3.38;1.40;;;11.00;99.90;;;;;;8427545;28;20094;-77
2024/03/01 12:59:48;;;;;;;3.92;1.50;;;11.20;99.90;;;;;;8428882;28;20491;-77
2024/03/01 13:03:56;;;;;;;4.85;1.42;;;11.20;99.90;;;;;;8427058;28;20150;-77
2024/03/01 13:08:00;;;;;;;3.70;1.30;;;11.10;99.90;;;;;;8430314;28;20372;-77
2024/03/01 13:12:07;;;;;;;3.55;1.50;;;11.00;99.90;;;;;;8430833;28;20039;-77
2024/03/01 13:16:11;;;;;;;3.63;1.20;;;10.80;99.90;;;;;;8432375;28;20044;-77
2024/03/01 13:20:28;;;;;;;4.18;1.38;;;10.80;99.90;;;;;;8446762;27;20055;-77
2024/03/01 13:24:43;;;;;;;4.88;1.38;;;10.80;99.90;;;;;;8436082;28;20047;-76
2024/03/01 13:29:03;;;;;;;5.18;1.50;;;10.70;99.90;;;;;;8436993;28;20048;-76
2024/03/01 13:33:10;;;;;;;3.75;1.30;;;10.70;99.90;;;;;;8442742;27;20865;-77
2024/03/01 13:37:23;;;;;;;4.93;1.30;;;10.60;99.90;;;;;;8435125;28;20051;-76
2024/03/01 13:41:29;;;;;;;4.95;1.30;;;10.60;99.90;;;;;;8443650;28;20093;-76
2024/03/01 13:45:35;;;;;;;2.72;1.20;;;10.60;99.90;;;;;;8428401;27;20091;-76
2024/03/01 13:49:39;;;;;;;3.77;1.30;;;10.60;99.90;;;;;;8442279;28;20051;-76
2024/03/01 13:53:47;;;;;;;2.97;1.10;;;10.60;99.90;;;;;;8438330;28;20048;-77
2024/03/01 13:57:50;;;;;;;3.55;1.20;;;10.60;99.90;;;;;;8439553;28;20459;-77
2024/03/01 14:01:52;;;;;;;2.50;1.00;;;10.60;99.90;;;;;;8428326;28;20052;-77
2024/03/01 14:05:59;;;;;;;2.60;0.88;;;10.60;99.90;;;;;;8427421;28;20498;-76
2024/03/01 14:10:06;;;;;;;2.43;1.00;;;10.80;99.90;;;;;;8432688;28;20044;-77
2024/03/01 14:14:08;;;;;;;2.88;0.90;;;11.00;99.90;;;;;;8429670;28;20074;-77
2024/03/01 14:18:11;;;;;;;3.15;1.00;;;11.20;99.90;;;;;;8428241;28;20717;-77
2024/03/01 14:22:13;;;;;;;1.77;0.70;;;11.10;99.90;;;;;;8435708;27;20082;-77
2024/03/01 14:26:15;;;;;;;1.98;0.80;;;11.00;99.90;;;;;;8439458;28;20048;-77
2024/03/01 14:30:19;;;;;;;2.63;0.80;;;10.80;99.90;;;;;;8428511;28;20090;-76
2024/03/01 14:34:21;;;;;;;2.55;1.00;;;10.80;99.90;;;;;;8435811;28;20040;-76
2024/03/01 14:38:22;;;;;;;4.40;1.05;;;10.70;99.90;;;;;;8440823;28;20048;-77
2024/03/01 14:42:24;;;;;;;2.88;0.95;;;10.60;99.90;;;;;;8440721;27;20064;-76
2024/03/01 14:46:32;;;;;;;2.42;0.90;;;10.50;99.90;;;;;;8435920;28;20452;-77
2024/03/01 14:50:41;;;;;;;3.53;0.98;;;10.40;99.90;;;;;;8436105;27;20123;-77
2024/03/01 14:54:45;;;;;;;2.65;0.98;;;10.40;99.90;;;;;;8434695;27;20105;-77
2024/03/01 14:58:47;;;;;;;1.55;0.80;;;10.30;99.90;;;;;;8436648;28;20043;-77
2024/03/01 15:02:51;;;;;;;3.13;0.80;;;10.40;99.90;;;;;;8441863;27;20110;-77
2024/03/01 15:06:54;;;;;;;3.75;0.80;;;10.40;99.90;;;;;;8427303;28;20529;-77
2024/03/01 15:11:09;;;;;;;2.92;1.08;;;10.40;99.90;;;;;;8439147;28;20048;-77
2024/03/01 15:15:12;;;;;;;3.83;0.82;;;10.30;99.90;;;;;;8434926;27;20052;-77
2024/03/01 15:19:15;;;;;;;1.85;0.85;;;10.30;99.90;;;;;;8442412;28;20040;-76
2024/03/01 15:23:17;;;;;;;3.92;0.90;;;10.30;99.90;;;;;;8427954;28;20053;-76
2024/03/01 15:27:25;;;;;;;4.00;1.02;;;10.30;99.90;;;;;;8432060;28;20093;-76
2024/03/01 15:31:27;;;;;;;2.78;1.10;;;10.30;99.90;;;;;;8427283;27;20080;-76
2024/03/01 15:35:30;;;;;;;2.97;0.88;;;10.30;99.90;;;;;;8460221;27;20055;-76
2024/03/01 15:39:32;;;;;;;4.05;1.13;;;10.20;99.90;;;;;;8429144;27;20105;-76
2024/03/01 15:43:35;;;;;;;2.53;0.82;;;10.20;99.90;;;;;;8427133;28;20062;-76
2024/03/01 15:47:37;;;;;;;3.53;0.98;;;10.10;99.90;;;;;;8438728;27;20062;-76
2024/03/01 15:51:39;;;;;;;2.95;0.95;;;10.00;99.90;;;;;;8439081;27;20146;-76
2024/03/01 15:55:47;;;;;;;4.35;1.10;;;9.90;99.90;;;;;;8439571;27;20052;-76
2024/03/01 15:59:49;;;;;;;5.10;1.00;;;9.90;99.90;;;;;;8425305;27;20040;-76
2024/03/01 16:03:51;;;;;;;5.03;0.95;;;9.90;99.90;;;;;;8428642;28;20047;-76
2024/03/01 16:07:53;;;;;;;2.95;0.85;;;9.90;99.90;;;;;;8433598;27;20048;-76
2024/03/01 16:11:56;;;;;;;3.42;1.15;;;9.90;99.90;;;;;;8428754;27;20046;-76
2024/03/01 16:15:59;;;;;;;3.33;0.90;;;9.90;99.90;;;;;;8430624;28;20051;-76
2024/03/01 16:20:02;;;;;;;3.17;1.00;;;9.90;99.90;;;;;;8425494;28;20494;-76
2024/03/01 16:24:07;;;;;;;3.63;1.00;;;10.00;99.90;;;;;;8430268;27;20072;-76
2024/03/01 16:28:18;;;;;;;2.47;0.90;;;10.00;99.90;;;;;;8430535;27;20114;-77
2024/03/01 16:32:29;;;;;;;3.65;0.90;;;10.00;99.90;;;;;;8434877;28;20495;-76
2024/03/01 16:36:31;;;;;;;5.40;1.00;;;10.00;99.90;;;;;;8429780;28;20042;-76
2024/03/01 16:40:33;;;;;;;2.13;0.98;;;10.10;99.90;;;;;;8423662;28;20149;-76
2024/03/01 16:44:43;;;;;;;4.43;1.00;;;10.10;99.90;;;;;;8434719;28;20051;-75
2024/03/01 16:48:48;;;;;;;2.95;1.13;;;10.10;99.90;;;;;;8437297;28;20112;-76
2024/03/01 16:52:52;;;;;;;3.85;1.00;;;10.10;99.90;;;;;;8433807;28;20047;-76
2024/03/01 16:56:58;;;;;;;3.88;1.17;;;10.10;99.90;;;;;;8435412;27;20106;-76
2024/03/01 17:01:00;;;;;;;2.85;1.00;;;10.10;99.90;;;;;;8434084;27;20047;-76
2024/03/01 17:05:11;;;;;;;3.00;1.00;;;10.10;99.90;;;;;;8429076;28;20054;-77
2024/03/01 17:09:16;;;;;;;3.63;0.90;;;10.10;99.90;;;;;;8431246;28;20051;-76
2024/03/01 17:13:24;;;;;;;1.83;0.80;;;10.10;99.90;;;;;;8437282;28;20043;-76
2024/03/01 17:17:30;;;;;;;5.18;1.10;;;10.10;99.90;;;;;;8436565;28;20075;-76
2024/03/01 17:21:33;;;;;;;3.45;0.93;;;10.10;99.90;;;;;;8432671;28;20051;-77
2024/03/01 17:25:35;;;;;;;3.03;1.00;;;10.10;99.90;;;;;;8437074;28;20055;-76
2024/03/01 17:29:37;;;;;;;2.30;0.93;;;10.10;99.90;;;;;;8440793;28;20106;-76
2024/03/01 17:33:40;;;;;;;2.20;1.00;;;10.10;99.90;;;;;;8447809;27;20707;-76
2024/03/01 17:37:42;;;;;;;4.63;1.08;;;10.10;99.90;;;;;;8439934;27;20051;-76
2024/03/01 17:41:44;;;;;;;2.55;1.00;;;10.10;99.90;;;;;;8445157;28;20060;-76
2024/03/01 17:45:46;;;;;;;2.95;0.90;;;10.10;99.90;;;;;;8433864;27;20074;-76
2024/03/01 17:49:47;;;;;;;4.30;1.15;;;10.00;99.90;;;;;;8433946;28;20390;-77
2024/03/01 17:53:49;;;;;;;4.00;0.88;;;10.00;99.90;;;;;;8424264;27;20577;-76
2024/03/01 17:57:51;;;;;;;6.13;1.20;;;10.00;99.90;;;;;;8434668;28;20455;-76
2024/03/01 18:01:53;;;;;;;2.42;0.93;;;10.00;99.90;;;;;;8431952;27;20051;-76
2024/03/01 18:05:59;;;;;;;3.55;1.00;;;10.00;99.90;;;;;;8428564;28;20167;-77
2024/03/01 18:10:02;;;;;;;3.00;1.30;;;10.00;99.90;;;;;;8430480;27;20048;-76
2024/03/01 18:14:07;;;;;;;2.65;0.90;;;10.00;99.90;;;;;;8431019;28;20525;-76
2024/03/01 18:18:09;;;;;;;3.67;1.10;;;9.90;99.90;;;;;;8429658;28;20099;-76
2024/03/01 18:22:11;;;;;;;3.05;1.00;;;9.90;99.90;;;;;;8431669;27;20047;-76
2024/03/01 18:26:13;;;;;;;;;;;9.90;99.90;;;;;;8441996;27;19935;-76
2024/03/01 18:30:16;;;;;;;3.45;1.00;;;9.80;99.90;;;;;;8428592;27;19928;-76
2024/03/01 18:34:18;;;;;;;3.30;1.30;;;9.70;99.90;;;;;;8455210;27;20131;-76
2024/03/01 18:38:20;;;;;;;2.63;0.90;;;9.60;99.90;;;;;;8442178;28;20566;-76
2024/03/01 18:42:21;;;;;;;4.15;1.25;;;9.50;99.90;;;;;;8445424;28;20040;-76
2024/03/01 18:46:23;;;;;;;3.35;1.10;;;9.50;99.90;;;;;;8442958;28;20396;-77
2024/03/01 18:50:30;;;;;;;2.80;1.02;;;9.40;99.90;;;;;;8444424;27;20051;-77
2024/03/01 18:54:33;;;;;;;2.42;0.98;;;9.40;99.90;;;;;;8442061;27;20044;-76
2024/03/01 18:58:35;;;;;;;2.75;0.90;;;9.40;99.90;;;;;;8441041;28;20050;-76
2024/03/01 19:02:37;;;;;;;2.33;0.85;;;9.30;99.90;;;;;;8440614;28;20063;-76
2024/03/01 19:06:39;;;;;;;3.70;1.27;;;9.30;99.90;;;;;;8443806;28;20079;-76
2024/03/01 19:10:41;;;;;;;4.90;1.30;;;9.30;99.90;;;;;;8439295;28;20047;-76
2024/03/01 19:14:43;;;;;;;4.03;1.40;;;9.30;99.90;;;;;;8437491;28;20139;-77
2024/03/01 19:18:45;;;;;;;3.53;1.20;;;9.30;99.90;;;;;;8430797;28;20040;-76
2024/03/01 19:22:47;;;;;;;3.08;1.15;;;9.20;99.90;;;;;;8427951;27;20051;-76
2024/03/01 19:26:51;;;;;;;3.40;1.15;;;9.20;99.90;;;;;;8432621;27;20048;-76
2024/03/01 19:30:55;;;;;;;2.60;1.20;;;9.20;99.90;;;;;;8431242;28;20040;-77
2024/03/01 19:34:56;;;;;;;2.63;1.13;;;9.20;99.90;;;;;;8434987;27;20135;-77
2024/03/01 19:39:00;;;;;;;3.38;1.10;;;9.20;99.90;;;;;;8430254;28;20086;-77
2024/03/01 19:43:02;;;;;;;3.00;0.90;;;9.20;99.90;;;;;;8434744;28;20047;-76
2024/03/01 19:47:04;;;;;;;4.53;1.20;;;9.30;99.90;;;;;;8431752;28;21618;-77
2024/03/01 19:51:06;;;;;;;2.83;1.08;;;9.30;99.90;;;;;;8439251;28;20063;-76
2024/03/01 19:55:08;;;;;;;2.78;1.17;;;9.30;99.90;;;;;;8433904;28;20043;-77
2024/03/01 19:59:10;;;;;;;3.72;1.27;;;9.40;99.90;;;;;;8429658;28;20036;-76
2024/03/01 20:03:14;;;;;;;5.07;1.20;;;9.40;99.90;;;;;;8429311;28;20094;-77
2024/03/01 20:07:16;;;;;;;2.95;1.00;;;9.40;99.90;;;;;;8433121;28;20060;-77
2024/03/01 20:11:18;;;;;;;2.95;1.05;;;9.40;99.90;;;;;;8432349;28;20044;-77
2024/03/01 20:15:20;;;;;;;3.72;1.20;;;9.40;99.90;;;;;;8435720;28;20139;-77
2024/03/01 20:19:22;;;;;;;3.40;1.10;;;9.30;99.90;;;;;;8429543;28;20047;-77
2024/03/01 20:23:26;;;;;;;3.53;1.38;;;9.30;99.90;;;;;;8426447;28;20068;-77
2024/03/01 20:27:29;;;;;;;4.60;1.38;;;9.30;99.90;;;;;;8430198;28;20040;-77
2024/03/01 20:31:31;;;;;;;3.47;1.20;;;9.30;99.90;;;;;;8425655;28;20089;-77
2024/03/01 20:35:34;;;;;;;5.05;1.45;;;9.20;99.90;;;;;;8428836;28;20445;-77
2024/03/01 20:39:36;;;;;;;4.78;1.52;;;9.20;99.90;;;;;;8432010;28;20372;-77
2024/03/01 20:43:38;;;;;;;3.30;1.50;;;9.20;99.90;;;;;;8426096;28;20047;-76
2024/03/01 20:47:39;;;;;;;5.13;1.40;;;9.20;99.90;;;;;;8431639;28;20477;-77
2024/03/01 20:51:42;;;;;;;5.53;1.30;;;9.20;99.90;;;;;;8431600;28;20423;-77
2024/03/01 20:55:44;;;;;;;2.60;1.13;;;9.10;99.90;;;;;;8432034;28;20495;-77
2024/03/01 20:59:46;;;;;;;3.13;1.35;;;9.10;99.90;;;;;;8426271;28;20051;-77
2024/03/01 21:03:48;;;;;;;2.85;1.30;;;9.00;99.90;;;;;;8429432;28;20142;-77
2024/03/01 21:07:50;;;;;;;3.17;1.35;;;8.90;99.90;;;;;;8428163;28;20048;-77
2024/03/01 21:11:52;;;;;;;2.95;1.27;;;8.90;99.90;;;;;;8434280;28;20044;-77
2024/03/01 21:15:54;;;;;;;6.30;1.70;;;8.80;99.90;;;;;;8433140;28;20050;-76
2024/03/01 21:19:56;;;;;;;3.88;1.60;;;8.80;99.90;;;;;;8461405;27;20402;-77
2024/03/01 21:23:58;;;;;;;3.55;1.40;;;8.80;99.90;;;;;;8425394;28;20061;-77
2024/03/01 21:28:00;;;;;;;3.58;1.52;;;8.80;99.90;;;;;;8429256;28;20051;-77
2024/03/01 21:32:01;;;;;;;3.25;1.10;;;8.90;99.90;;;;;;8435214;28;20050;-77
2024/03/01 21:36:05;;;;;;;3.25;1.40;;;8.90;99.90;;;;;;8432941;28;20089;-77
2024/03/01 21:40:21;;;;;;;3.17;1.42;;;8.90;99.90;;;;;;8432530;27;20036;-77